sensor_id;sensor_type;location;lat;lon;timestamp;temperature;humidity
45735;DHT22;31446;49.632;8.328;2023-04-24T00:07:19;10.70;99.90
45735;DHT22;31446;49.632;8.328;2023-04-24T01:41:48;11.00;99.90
45735;DHT22;31446;49.632;8.328;2023-04-24T01:56:55;11.10;99.90
45735;DHT22;31446;49.632;8.328;2023-04-24T02:12:01;11.10;99.90
45735;DHT22;31446;49.632;8.328;2023-04-24T02:27:08;11.30;99.90
45735;DHT22;31446;49.632;8.328;2023-04-24T02:42:14;10.70;99.90
45735;DHT22;31446;49.632;8.328;2023-04-24T02:57:21;10.50;99.90
45735;DHT22;31446;49.632;8.328;2023-04-24T03:12:27;10.70;99.90
45735;DHT22;31446;49.632;8.328;2023-04-24T03:27:34;10.50;99.90
45735;DHT22;31446;49.632;8.328;2023-04-24T03:42:40;10.30;99.90
45735;DHT22;31446;49.632;8.328;2023-04-24T03:57:47;10.00;99.90
45735;DHT22;31446;49.632;8.328;2023-04-24T04:12:53;9.60;99.90
45735;DHT22;31446;49.632;8.328;2023-04-24T04:28:00;9.20;99.90
45735;DHT22;31446;49.632;8.328;2023-04-24T04:43:06;9.00;99.90
45735;DHT22;31446;49.632;8.328;2023-04-24T04:58:13;9.10;99.90
45735;DHT22;31446;49.632;8.328;2023-04-24T05:13:19;9.30;99.90
45735;DHT22;31446;49.632;8.328;2023-04-24T05:28:26;9.50;99.90
45735;DHT22;31446;49.632;8.328;2023-04-24T05:43:33;9.50;99.90
45735;DHT22;31446;49.632;8.328;2023-04-24T05:58:39;9.70;99.90
45735;DHT22;31446;49.632;8.328;2023-04-24T06:13:46;9.80;99.90
45735;DHT22;31446;49.632;8.328;2023-04-24T06:28:53;10.00;99.90
45735;DHT22;31446;49.632;8.328;2023-04-24T06:44:01;10.40;99.90
45735;DHT22;31446;49.632;8.328;2023-04-24T06:59:08;10.60;99.90
45735;DHT22;31446;49.632;8.328;2023-04-24T07:14:15;11.10;99.90
45735;DHT22;31446;49.632;8.328;2023-04-24T07:29:21;11.60;99.90
45735;DHT22;31446;49.632;8.328;2023-04-24T07:44:28;12.10;99.90
45735;DHT22;31446;49.632;8.328;2023-04-24T07:59:35;12.30;99.90
45735;DHT22;31446;49.632;8.328;2023-04-24T08:14:42;13.30;99.90
45735;DHT22;31446;49.632;8.328;2023-04-24T08:29:48;12.30;99.90
45735;DHT22;31446;49.632;8.328;2023-04-24T08:44:55;12.70;99.90
45735;DHT22;31446;49.632;8.328;2023-04-24T09:00:02;13.20;99.90
45735;DHT22;31446;49.632;8.328;2023-04-24T09:15:10;13.30;99.90
45735;DHT22;31446;49.632;8.328;2023-04-24T09:30:23;14.00;99.90
45735;DHT22;31446;49.632;8.328;2023-04-24T09:45:35;13.50;99.90
45735;DHT22;31446;49.632;8.328;2023-04-24T10:00:42;12.80;99.90
45735;DHT22;31446;49.632;8.328;2023-04-24T10:15:50;13.50;99.90
45735;DHT22;31446;49.632;8.328;2023-04-24T10:30:57;14.20;99.90
45735;DHT22;31446;49.632;8.328;2023-04-24T10:46:05;14.00;99.90
45735;DHT22;31446;49.632;8.328;2023-04-24T11:01:27;14.10;99.90
45735;DHT22;31446;49.632;8.328;2023-04-24T11:16:35;14.50;99.90
45735;DHT22;31446;49.632;8.328;2023-04-24T11:31:44;14.60;99.90
45735;DHT22;31446;49.632;8.328;2023-04-24T11:46:55;14.40;99.90
45735;DHT22;31446;49.632;8.328;2023-04-24T12:02:03;14.70;99.90
45735;DHT22;31446;49.632;8.328;2023-04-24T12:17:10;15.30;99.90
45735;DHT22;31446;49.632;8.328;2023-04-24T12:32:18;14.40;99.90
45735;DHT22;31446;49.632;8.328;2023-04-24T12:47:25;14.70;99.90
45735;DHT22;31446;49.632;8.328;2023-04-24T13:02:31;14.40;99.90
45735;DHT22;31446;49.632;8.328;2023-04-24T13:17:38;13.70;99.90
45735;DHT22;31446;49.632;8.328;2023-04-24T13:32:44;15.40;99.90
45735;DHT22;31446;49.632;8.328;2023-04-24T13:47:51;14.60;99.90
45735;DHT22;31446;49.632;8.328;2023-04-24T14:03:00;14.10;99.90
45735;DHT22;31446;49.632;8.328;2023-04-24T14:18:06;14.00;99.90
45735;DHT22;31446;49.632;8.328;2023-04-24T14:33:13;14.70;99.90
45735;DHT22;31446;49.632;8.328;2023-04-24T14:48:19;15.00;99.90
45735;DHT22;31446;49.632;8.328;2023-04-24T15:03:26;15.30;99.90
45735;DHT22;31446;49.632;8.328;2023-04-24T15:18:32;14.10;99.90
45735;DHT22;31446;49.632;8.328;2023-04-24T15:33:39;14.70;99.90
45735;DHT22;31446;49.632;8.328;2023-04-24T15:48:46;15.00;99.90
45735;DHT22;31446;49.632;8.328;2023-04-24T16:03:52;14.50;99.90
45735;DHT22;31446;49.632;8.328;2023-04-24T16:18:59;14.00;99.90
45735;DHT22;31446;49.632;8.328;2023-04-24T16:34:06;14.00;99.90
45735;DHT22;31446;49.632;8.328;2023-04-24T16:49:12;13.80;99.90
45735;DHT22;31446;49.632;8.328;2023-04-24T17:04:18;14.00;99.90
45735;DHT22;31446;49.632;8.328;2023-04-24T17:19:25;13.40;99.90
45735;DHT22;31446;49.632;8.328;2023-04-24T17:34:31;13.10;99.90
45735;DHT22;31446;49.632;8.328;2023-04-24T17:49:38;12.80;99.90
45735;DHT22;31446;49.632;8.328;2023-04-24T18:04:45;12.50;99.90
45735;DHT22;31446;49.632;8.328;2023-04-24T18:19:52;12.20;99.90
45735;DHT22;31446;49.632;8.328;2023-04-24T18:34:59;11.40;99.90
45735;DHT22;31446;49.632;8.328;2023-04-24T18:50:06;11.20;99.90
45735;DHT22;31446;49.632;8.328;2023-04-24T19:05:13;11.30;99.90
45735;DHT22;31446;49.632;8.328;2023-04-24T19:20:20;11.30;99.90
45735;DHT22;31446;49.632;8.328;2023-04-24T19:35:26;11.30;99.90
45735;DHT22;31446;49.632;8.328;2023-04-24T19:50:32;11.20;99.90
45735;DHT22;31446;49.632;8.328;2023-04-24T20:05:40;11.10;99.90
45735;DHT22;31446;49.632;8.328;2023-04-24T20:20:46;11.00;99.90
45735;DHT22;31446;49.632;8.328;2023-04-24T20:35:56;10.80;99.90
45735;DHT22;31446;49.632;8.328;2023-04-24T20:51:03;10.80;99.90
45735;DHT22;31446;49.632;8.328;2023-04-24T21:06:10;10.50;99.90
45735;DHT22;31446;49.632;8.328;2023-04-24T21:21:16;10.50;99.90
45735;DHT22;31446;49.632;8.328;2023-04-24T21:36:23;10.60;99.90
45735;DHT22;31446;49.632;8.328;2023-04-24T21:51:31;10.40;99.90
45735;DHT22;31446;49.632;8.328;2023-04-24T22:06:37;10.10;99.90
45735;DHT22;31446;49.632;8.328;2023-04-24T22:21:44;9.60;99.90
45735;DHT22;31446;49.632;8.328;2023-04-24T22:36:50;9.20;99.90
45735;DHT22;31446;49.632;8.328;2023-04-24T22:51:57;9.10;99.90
45735;DHT22;31446;49.632;8.328;2023-04-24T23:07:04;9.10;99.90
45735;DHT22;31446;49.632;8.328;2023-04-24T23:22:10;9.00;99.90
45735;DHT22;31446;49.632;8.328;2023-04-24T23:37:18;9.00;99.90
45735;DHT22;31446;49.632;8.328;2023-04-24T23:52:24;8.90;99.90
